Time;durP1;ratioP1;P1;durP2;ratioP2;P2;SDS_P1;SDS_P2;PMS_P1;PMS_P2;Temp;Humidity;BMP_temperature;BMP_pressure;BME280_temperature;BME280_humidity;BME280_pressure;Samples;Min_cycle;Max_cycle;Signal;HPM_P1;HPM_P2
2021/05/31 00:01:34;;;;;;;1.73;1.61;;;;;;;19.11;52.93;101027.92;;;;-52
2021/05/31 00:04:34;;;;;;;1.70;1.60;;;;;;;19.10;52.94;101029.78;;;;-52
2021/05/31 00:07:34;;;;;;;1.87;1.53;;;;;;;19.10;52.86;101027.11;;;;-52
2021/05/31 00:10:34;;;;;;;1.71;1.61;;;;;;;19.09;52.83;101021.14;;;;-53
2021/05/31 00:13:34;;;;;;;1.69;1.59;;;;;;;19.08;52.86;101022.12;;;;-52
2021/05/31 00:16:35;;;;;;;1.70;1.60;;;;;;;19.08;52.83;101018.70;;;;-52
2021/05/31 00:19:34;;;;;;;1.63;1.53;;;;;;;19.08;52.82;101020.17;;;;-53
2021/05/31 00:22:34;;;;;;;1.75;1.60;;;;;;;19.07;52.85;101018.11;;;;-53
2021/05/31 00:25:34;;;;;;;1.99;1.79;;;;;;;19.06;52.82;101014.69;;;;-52
2021/05/31 00:28:34;;;;;;;1.77;1.67;;;;;;;19.05;52.83;101011.36;;;;-52
2021/05/31 00:31:34;;;;;;;1.79;1.60;;;;;;;19.06;52.78;101011.68;;;;-52
2021/05/31 00:34:34;;;;;;;1.62;1.52;;;;;;;19.05;52.82;101009.41;;;;-52
2021/05/31 00:37:34;;;;;;;1.60;1.50;;;;;;;19.04;52.74;101008.08;;;;-52
2021/05/31 00:40:34;;;;;;;1.70;1.60;;;;;;;19.03;52.85;101008.48;;;;-52
2021/05/31 00:43:34;;;;;;;1.69;1.59;;;;;;;19.03;52.89;101000.03;;;;-52
2021/05/31 00:46:34;;;;;;;1.68;1.58;;;;;;;19.03;52.79;101002.30;;;;-52
2021/05/31 00:49:38;;;;;;;1.76;1.66;;;;;;;19.02;52.82;101003.33;;;;-53
2021/05/31 00:52:34;;;;;;;2.06;1.69;;;;;;;19.02;52.85;101002.92;;;;-52
2021/05/31 00:55:34;;;;;;;1.73;1.63;;;;;;;19.01;52.85;101001.22;;;;-52
2021/05/31 00:58:36;;;;;;;1.67;1.57;;;;;;;19.01;52.77;101002.11;;;;-52
2021/05/31 01:01:34;;;;;;;1.71;1.61;;;;;;;19.00;52.86;100995.25;;;;-52
2021/05/31 01:04:34;;;;;;;1.61;1.51;;;;;;;19.00;52.67;100995.91;;;;-52
2021/05/31 01:07:36;;;;;;;1.74;1.64;;;;;;;19.00;52.74;100992.81;;;;-53
2021/05/31 01:10:34;;;;;;;1.79;1.69;;;;;;;18.99;52.86;100990.78;;;;-52
2021/05/31 01:13:34;;;;;;;1.61;1.51;;;;;;;18.98;52.67;100989.86;;;;-53
2021/05/31 01:16:34;;;;;;;1.70;1.60;;;;;;;18.98;52.77;100989.05;;;;-52
2021/05/31 01:19:34;;;;;;;1.73;1.63;;;;;;;18.96;52.72;100983.08;;;;-52
2021/05/31 01:22:34;;;;;;;1.70;1.60;;;;;;;18.96;52.77;100984.05;;;;-53
2021/05/31 01:25:34;;;;;;;1.68;1.56;;;;;;;18.96;52.71;100984.30;;;;-53
2021/05/31 01:28:34;;;;;;;1.80;1.70;;;;;;;18.97;52.73;100987.58;;;;-53
2021/05/31 01:31:34;;;;;;;1.77;1.67;;;;;;;18.95;52.70;100984.62;;;;-53
2021/05/31 01:34:34;;;;;;;1.71;1.61;;;;;;;18.95;52.63;100980.56;;;;-52
2021/05/31 01:37:34;;;;;;;1.65;1.55;;;;;;;18.94;52.78;100980.45;;;;-53
2021/05/31 01:40:34;;;;;;;1.77;1.67;;;;;;;18.95;52.72;100978.12;;;;-53
2021/05/31 01:43:34;;;;;;;1.92;1.71;;;;;;;18.93;52.72;100979.31;;;;-52
2021/05/31 01:46:34;;;;;;;1.79;1.57;;;;;;;18.93;52.66;100976.39;;;;-52
2021/05/31 01:49:34;;;;;;;1.81;1.71;;;;;;;18.94;52.74;100976.79;;;;-53
2021/05/31 01:52:34;;;;;;;1.65;1.55;;;;;;;18.93;52.72;100972.00;;;;-52
2021/05/31 01:55:34;;;;;;;1.70;1.60;;;;;;;18.93;52.61;100978.74;;;;-53
2021/05/31 01:58:34;;;;;;;1.63;1.53;;;;;;;18.92;52.74;100979.11;;;;-52
2021/05/31 02:01:34;;;;;;;1.73;1.60;;;;;;;18.92;52.65;100980.01;;;;-52
2021/05/31 02:04:34;;;;;;;1.70;1.60;;;;;;;18.92;52.74;100976.92;;;;-52
2021/05/31 02:07:34;;;;;;;2.23;1.65;;;;;;;18.91;52.65;100973.51;;;;-53
2021/05/31 02:10:34;;;;;;;1.63;1.52;;;;;;;18.90;52.69;100970.63;;;;-53
2021/05/31 02:13:34;;;;;;;1.60;1.50;;;;;;;18.90;52.71;100971.12;;;;-52
2021/05/31 02:16:34;;;;;;;1.73;1.57;;;;;;;18.90;52.65;100968.84;;;;-53
2021/05/31 02:19:34;;;;;;;1.80;1.70;;;;;;;18.90;52.70;100967.55;;;;-52
2021/05/31 02:22:34;;;;;;;2.37;1.83;;;;;;;18.89;52.63;100965.11;;;;-53
2021/05/31 02:25:34;;;;;;;1.74;1.64;;;;;;;18.89;52.72;100966.41;;;;-53
2021/05/31 02:28:34;;;;;;;1.91;1.71;;;;;;;18.88;52.67;100961.17;;;;-53
2021/05/31 02:31:34;;;;;;;2.11;1.76;;;;;;;18.88;52.63;100961.29;;;;-52
2021/05/31 02:34:34;;;;;;;1.66;1.56;;;;;;;18.87;52.61;100960.61;;;;-53
2021/05/31 02:37:34;;;;;;;1.72;1.60;;;;;;;18.88;52.65;100964.27;;;;-52
2021/05/31 02:40:34;;;;;;;1.69;1.59;;;;;;;18.87;52.73;100961.75;;;;-53
2021/05/31 02:43:34;;;;;;;1.91;1.70;;;;;;;18.87;52.61;100963.20;;;;-52
2021/05/31 02:46:34;;;;;;;1.68;1.58;;;;;;;18.87;52.63;100963.45;;;;-53
2021/05/31 02:49:34;;;;;;;1.60;1.50;;;;;;;18.86;52.67;100965.36;;;;-52
2021/05/31 02:52:34;;;;;;;1.61;1.51;;;;;;;18.86;52.70;100957.68;;;;-52
2021/05/31 02:55:36;;;;;;;1.61;1.51;;;;;;;18.86;52.64;100952.29;;;;-53
2021/05/31 02:58:34;;;;;;;1.61;1.51;;;;;;;18.85;52.66;100950.58;;;;-52
2021/05/31 03:01:34;;;;;;;1.65;1.55;;;;;;;18.85;52.67;100951.39;;;;-52
2021/05/31 03:04:34;;;;;;;1.61;1.51;;;;;;;18.85;52.73;100953.18;;;;-52
2021/05/31 03:07:34;;;;;;;2.11;1.61;;;;;;;18.84;52.66;100950.88;;;;-53
2021/05/31 03:10:34;;;;;;;1.63;1.53;;;;;;;18.84;52.66;100955.26;;;;-52
2021/05/31 03:13:34;;;;;;;1.71;1.59;;;;;;;18.83;52.68;100954.53;;;;-52
2021/05/31 03:16:34;;;;;;;1.86;1.76;;;;;;;18.83;52.69;100954.28;;;;-52
2021/05/31 03:19:34;;;;;;;1.87;1.68;;;;;;;18.83;52.60;100955.17;;;;-52
2021/05/31 03:22:34;;;;;;;1.74;1.64;;;;;;;18.82;52.69;100953.20;;;;-53
2021/05/31 03:25:34;;;;;;;1.56;1.46;;;;;;;18.82;52.59;100957.42;;;;-52
2021/05/31 03:28:34;;;;;;;1.81;1.71;;;;;;;18.81;52.62;100958.55;;;;-53
2021/05/31 03:31:34;;;;;;;1.77;1.63;;;;;;;18.82;52.75;100960.58;;;;-53
2021/05/31 03:34:34;;;;;;;1.61;1.51;;;;;;;18.81;52.63;100962.29;;;;-52
2021/05/31 03:37:34;;;;;;;1.69;1.59;;;;;;;18.81;52.64;100961.55;;;;-53
2021/05/31 03:40:34;;;;;;;2.21;1.59;;;;;;;18.81;52.53;100966.59;;;;-53
2021/05/31 03:43:34;;;;;;;1.64;1.54;;;;;;;18.80;52.67;100967.23;;;;-52
2021/05/31 03:46:34;;;;;;;1.60;1.50;;;;;;;18.80;52.72;100967.16;;;;-53
2021/05/31 03:49:34;;;;;;;1.84;1.71;;;;;;;18.80;52.59;100964.48;;;;-52
2021/05/31 03:52:34;;;;;;;1.60;1.50;;;;;;;18.79;52.59;100964.53;;;;-52
2021/05/31 03:55:34;;;;;;;1.64;1.54;;;;;;;18.78;52.55;100968.63;;;;-53
2021/05/31 03:58:34;;;;;;;1.73;1.63;;;;;;;18.79;52.69;100971.51;;;;-53
2021/05/31 04:01:34;;;;;;;1.67;1.57;;;;;;;18.78;52.62;100976.63;;;;-52
2021/05/31 04:04:40;;;;;;;1.70;1.60;;;;;;;18.78;52.58;100972.37;;;;-53
2021/05/31 04:12:34;;;;;;;1.83;1.66;;;;;;;18.77;52.63;100974.53;;;;-52
2021/05/31 04:15:34;;;;;;;1.70;1.60;;;;;;;18.76;52.55;100981.43;;;;-52
2021/05/31 04:18:34;;;;;;;1.77;1.67;;;;;;;18.76;52.56;100979.89;;;;-52
2021/05/31 04:21:34;;;;;;;1.63;1.53;;;;;;;18.76;52.57;100978.10;;;;-52
2021/05/31 04:24:34;;;;;;;1.65;1.55;;;;;;;18.75;52.58;100981.72;;;;-52
2021/05/31 04:27:34;;;;;;;1.61;1.51;;;;;;;18.75;52.58;100985.94;;;;-52
2021/05/31 04:30:34;;;;;;;1.76;1.66;;;;;;;18.75;52.63;100983.50;;;;-53
2021/05/31 04:33:34;;;;;;;2.08;1.88;;;;;;;18.75;51.51;100984.16;;;;-53
2021/05/31 04:36:34;;;;;;;2.89;2.53;;;;;;;18.63;48.50;100982.06;;;;-53
2021/05/31 04:39:34;;;;;;;8.00;2.87;;;;;;;18.56;47.89;100980.33;;;;-53
2021/05/31 04:42:34;;;;;;;2.89;2.63;;;;;;;18.43;47.83;100978.95;;;;-53
2021/05/31 04:45:34;;;;;;;3.85;2.87;;;;;;;18.32;45.99;100973.13;;;;-53
2021/05/31 04:48:34;;;;;;;4.81;2.76;;;;;;;18.22;46.08;100969.59;;;;-53
2021/05/31 04:51:34;;;;;;;3.10;2.80;;;;;;;18.09;46.13;100969.11;;;;-53
2021/05/31 04:54:34;;;;;;;3.01;2.67;;;;;;;17.96;46.17;100974.04;;;;-53
2021/05/31 04:57:34;;;;;;;3.59;2.81;;;;;;;17.86;46.44;100974.55;;;;-53
2021/05/31 05:00:34;;;;;;;4.01;2.71;;;;;;;17.78;46.83;100975.77;;;;-53
2021/05/31 05:03:35;;;;;;;4.09;2.85;;;;;;;17.72;47.02;100977.45;;;;-53
2021/05/31 05:06:34;;;;;;;2.83;2.43;;;;;;;17.65;47.16;100978.53;;;;-53
2021/05/31 05:09:34;;;;;;;2.71;2.50;;;;;;;17.62;46.78;100977.10;;;;-53
2021/05/31 05:12:34;;;;;;;3.18;2.44;;;;;;;17.59;47.00;100984.16;;;;-52
2021/05/31 05:15:34;;;;;;;3.43;2.73;;;;;;;17.55;46.73;100984.95;;;;-53
2021/05/31 05:18:34;;;;;;;4.35;2.71;;;;;;;17.52;46.89;100988.86;;;;-53
2021/05/31 05:21:34;;;;;;;4.33;2.51;;;;;;;17.53;46.45;100988.55;;;;-52
2021/05/31 05:24:34;;;;;;;5.31;2.50;;;;;;;17.51;46.34;100989.47;;;;-53
2021/05/31 05:27:34;;;;;;;5.07;3.00;;;;;;;17.46;46.22;100982.41;;;;-53
2021/05/31 05:30:34;;;;;;;4.72;2.86;;;;;;;17.42;47.01;100984.98;;;;-53
2021/05/31 05:33:35;;;;;;;2.95;2.43;;;;;;;17.49;47.03;100984.97;;;;-53
2021/05/31 05:36:43;;;;;;;3.91;2.46;;;;;;;17.49;47.42;100983.52;;;;-53
2021/05/31 05:39:51;;;;;;;3.59;2.51;;;;;;;17.53;47.39;100986.60;;;;-53
2021/05/31 05:42:54;;;;;;;4.88;2.79;;;;;;;17.54;46.88;100983.80;;;;-53
2021/05/31 05:45:50;;;;;;;3.66;2.50;;;;;;;17.51;47.22;100983.97;;;;-52
2021/05/31 05:48:34;;;;;;;3.78;2.54;;;;;;;17.53;47.56;100987.82;;;;-53
2021/05/31 05:51:34;;;;;;;3.37;2.48;;;;;;;17.57;47.72;100986.30;;;;-52
2021/05/31 05:54:34;;;;;;;3.44;2.42;;;;;;;17.62;47.80;100984.80;;;;-52
2021/05/31 05:57:34;;;;;;;4.94;2.47;;;;;;;17.66;47.88;100986.92;;;;-53
2021/05/31 06:00:34;;;;;;;3.47;2.51;;;;;;;17.69;47.98;100987.45;;;;-52
2021/05/31 06:03:34;;;;;;;3.45;2.66;;;;;;;17.73;48.12;100985.11;;;;-51
2021/05/31 06:06:34;;;;;;;4.82;2.39;;;;;;;17.75;48.30;100981.27;;;;-51
2021/05/31 06:09:34;;;;;;;3.52;2.33;;;;;;;17.77;48.42;100981.31;;;;-51
2021/05/31 06:12:34;;;;;;;4.24;2.39;;;;;;;17.79;48.49;100983.63;;;;-51
2021/05/31 06:15:34;;;;;;;3.54;2.35;;;;;;;17.81;48.56;100988.70;;;;-51
2021/05/31 06:18:34;;;;;;;2.56;2.23;;;;;;;17.83;48.68;100990.31;;;;-51
2021/05/31 06:21:34;;;;;;;2.71;2.40;;;;;;;17.84;48.81;100991.86;;;;-51
2021/05/31 06:24:34;;;;;;;4.00;2.16;;;;;;;17.86;48.89;100988.02;;;;-51
2021/05/31 06:27:34;;;;;;;3.93;2.33;;;;;;;17.87;48.99;100992.67;;;;-51
2021/05/31 06:30:34;;;;;;;2.64;2.20;;;;;;;17.88;49.08;100992.77;;;;-52
2021/05/31 06:33:34;;;;;;;2.98;2.33;;;;;;;17.90;49.12;100995.88;;;;-51
2021/05/31 06:36:39;;;;;;;2.68;2.19;;;;;;;17.91;49.17;100995.03;;;;-51
2021/05/31 06:39:34;;;;;;;2.67;2.20;;;;;;;17.92;49.26;100993.17;;;;-51
2021/05/31 06:42:36;;;;;;;2.49;2.15;;;;;;;17.93;49.35;100994.34;;;;-51
2021/05/31 06:45:34;;;;;;;3.79;2.29;;;;;;;17.94;49.39;100990.86;;;;-51
2021/05/31 06:48:34;;;;;;;2.76;2.28;;;;;;;17.95;49.45;100994.23;;;;-51
2021/05/31 06:51:34;;;;;;;2.59;2.18;;;;;;;17.96;49.50;100993.09;;;;-51
2021/05/31 06:54:34;;;;;;;2.67;2.16;;;;;;;17.97;49.53;100992.48;;;;-51
2021/05/31 06:57:34;;;;;;;2.44;2.09;;;;;;;17.97;49.57;100995.16;;;;-51
2021/05/31 07:00:34;;;;;;;3.16;2.09;;;;;;;17.99;49.61;100993.47;;;;-51
2021/05/31 07:03:34;;;;;;;2.99;2.30;;;;;;;18.00;49.67;100991.80;;;;-51
2021/05/31 07:06:35;;;;;;;2.73;2.11;;;;;;;18.01;49.69;100989.86;;;;-51
2021/05/31 07:09:34;;;;;;;2.32;2.12;;;;;;;18.02;49.72;100986.58;;;;-51
2021/05/31 07:12:34;;;;;;;2.30;2.07;;;;;;;18.03;49.74;100990.55;;;;-51
2021/05/31 07:15:34;;;;;;;2.84;2.09;;;;;;;18.04;49.78;100983.13;;;;-51
2021/05/31 07:18:34;;;;;;;2.26;2.03;;;;;;;18.05;49.80;100984.43;;;;-51
2021/05/31 07:21:34;;;;;;;2.43;2.03;;;;;;;18.05;49.92;100981.14;;;;-51
2021/05/31 07:24:34;;;;;;;2.29;2.09;;;;;;;18.06;49.94;100980.17;;;;-51
2021/05/31 07:27:34;;;;;;;2.22;2.02;;;;;;;18.07;49.90;100977.02;;;;-53
2021/05/31 07:30:34;;;;;;;2.48;2.22;;;;;;;18.09;50.20;100981.68;;;;-51
2021/05/31 07:33:34;;;;;;;2.57;2.14;;;;;;;18.11;50.27;100981.16;;;;-48
2021/05/31 07:36:34;;;;;;;2.60;2.14;;;;;;;18.13;50.47;100976.81;;;;-49
2021/05/31 07:39:34;;;;;;;2.20;2.00;;;;;;;18.15;50.57;100976.69;;;;-48
2021/05/31 07:42:34;;;;;;;2.25;1.97;;;;;;;18.17;50.69;100980.95;;;;-47
2021/05/31 07:45:34;;;;;;;2.27;2.07;;;;;;;18.19;50.83;100981.97;;;;-51
2021/05/31 07:48:34;;;;;;;3.11;2.09;;;;;;;18.21;50.69;100979.57;;;;-53
2021/05/31 07:51:34;;;;;;;2.47;2.19;;;;;;;18.21;50.77;100976.25;;;;-53
2021/05/31 07:54:34;;;;;;;2.24;2.04;;;;;;;18.22;50.75;100979.20;;;;-53
2021/05/31 07:57:34;;;;;;;3.60;2.00;;;;;;;18.23;50.74;100985.38;;;;-53
2021/05/31 08:00:34;;;;;;;2.19;1.91;;;;;;;18.23;50.72;100981.72;;;;-54
2021/05/31 08:03:34;;;;;;;2.15;1.82;;;;;;;18.24;50.78;100985.48;;;;-54
2021/05/31 08:06:34;;;;;;;3.45;2.10;;;;;;;18.24;50.94;100980.63;;;;-51
2021/05/31 08:09:34;;;;;;;3.78;2.03;;;;;;;18.25;50.78;100984.77;;;;-51
2021/05/31 08:12:35;;;;;;;3.83;2.17;;;;;;;18.27;50.84;100982.45;;;;-56
2021/05/31 08:15:34;;;;;;;4.04;2.09;;;;;;;18.29;51.05;100986.14;;;;-57
2021/05/31 08:18:34;;;;;;;3.79;2.21;;;;;;;18.31;51.24;100978.48;;;;-51
2021/05/31 08:21:34;;;;;;;2.22;2.02;;;;;;;18.33;51.28;100975.19;;;;-49
2021/05/31 08:24:34;;;;;;;2.55;2.13;;;;;;;18.35;51.28;100974.50;;;;-53
2021/05/31 08:27:34;;;;;;;2.20;2.00;;;;;;;18.38;51.32;100972.67;;;;-54
2021/05/31 08:30:34;;;;;;;2.33;2.00;;;;;;;18.41;51.40;100967.93;;;;-51
2021/05/31 08:33:34;;;;;;;2.19;1.99;;;;;;;18.42;51.41;100965.69;;;;-51
2021/05/31 08:36:34;;;;;;;2.29;2.02;;;;;;;18.43;51.41;100961.75;;;;-53
2021/05/31 08:39:34;;;;;;;2.54;2.10;;;;;;;18.44;51.45;100958.19;;;;-53
2021/05/31 08:42:34;;;;;;;2.40;1.86;;;;;;;18.46;51.41;100954.66;;;;-52
2021/05/31 08:45:37;;;;;;;2.39;1.89;;;;;;;18.49;51.44;100949.69;;;;-50
2021/05/31 08:48:34;;;;;;;4.23;2.18;;;;;;;18.51;51.44;100945.48;;;;-52
2021/05/31 08:51:34;;;;;;;3.03;2.09;;;;;;;18.52;51.52;100949.25;;;;-54
2021/05/31 08:54:34;;;;;;;1.98;1.85;;;;;;;18.54;51.45;100947.98;;;;-54
2021/05/31 08:57:34;;;;;;;3.11;1.91;;;;;;;18.54;51.62;100948.80;;;;-56
2021/05/31 09:00:34;;;;;;;3.05;1.95;;;;;;;18.56;51.57;100945.18;;;;-59
2021/05/31 09:03:34;;;;;;;2.46;1.93;;;;;;;18.57;51.54;100945.37;;;;-59
2021/05/31 09:06:35;;;;;;;2.51;1.95;;;;;;;18.58;51.62;100946.76;;;;-57
2021/05/31 09:09:34;;;;;;;2.13;1.93;;;;;;;18.60;51.53;100941.44;;;;-48
2021/05/31 09:12:35;;;;;;;2.12;1.90;;;;;;;18.61;51.51;100942.74;;;;-54
2021/05/31 09:15:34;;;;;;;2.20;1.83;;;;;;;18.62;51.66;100937.98;;;;-49
2021/05/31 09:18:34;;;;;;;2.46;1.94;;;;;;;18.62;51.61;100937.98;;;;-53
2021/05/31 09:21:34;;;;;;;2.21;2.00;;;;;;;18.64;51.58;100935.02;;;;-54
2021/05/31 09:24:34;;;;;;;2.35;1.99;;;;;;;18.66;51.56;100930.83;;;;-57
2021/05/31 09:27:34;;;;;;;3.04;2.10;;;;;;;18.67;51.57;100927.26;;;;-61
2021/05/31 09:30:34;;;;;;;2.25;1.85;;;;;;;18.69;51.62;100931.36;;;;-61
2021/05/31 09:33:34;;;;;;;3.13;1.90;;;;;;;18.69;51.58;100920.96;;;;-52
2021/05/31 09:36:34;;;;;;;4.03;1.90;;;;;;;18.71;51.61;100921.73;;;;-48
2021/05/31 09:39:34;;;;;;;4.27;1.96;;;;;;;18.74;51.65;100924.07;;;;-49
2021/05/31 09:42:34;;;;;;;5.25;1.92;;;;;;;18.75;51.70;100931.38;;;;-49
2021/05/31 09:45:34;;;;;;;2.82;1.91;;;;;;;18.75;51.67;100928.70;;;;-51
2021/05/31 09:48:34;;;;;;;2.90;1.97;;;;;;;18.77;51.75;100927.76;;;;-44
2021/05/31 09:51:34;;;;;;;4.49;1.97;;;;;;;18.79;51.61;100926.12;;;;-49
2021/05/31 09:54:34;;;;;;;5.28;1.95;;;;;;;18.79;51.70;100923.12;;;;-50
2021/05/31 09:57:35;;;;;;;11.06;2.27;;;;;;;18.79;51.62;100916.53;;;;-51
2021/05/31 10:00:34;;;;;;;3.97;1.91;;;;;;;18.81;51.66;100915.59;;;;-54
2021/05/31 10:03:41;;;;;;;5.95;1.90;;;;;;;18.80;51.71;100912.72;;;;-53
2021/05/31 10:06:42;;;;;;;2.41;1.97;;;;;;;18.81;51.57;100915.59;;;;-53
2021/05/31 10:09:34;;;;;;;4.79;1.90;;;;;;;18.82;51.54;100908.94;;;;-59
2021/05/31 10:12:34;;;;;;;3.39;1.90;;;;;;;18.81;51.52;100907.40;;;;-52
2021/05/31 10:15:35;;;;;;;3.05;1.79;;;;;;;18.81;51.60;100906.91;;;;-51
2021/05/31 10:18:35;;;;;;;4.19;1.90;;;;;;;18.82;51.60;100907.97;;;;-50
2021/05/31 10:21:34;;;;;;;2.95;1.89;;;;;;;18.82;51.61;100903.66;;;;-52
2021/05/31 10:24:34;;;;;;;1.83;1.69;;;;;;;18.83;51.58;100896.47;;;;-51
2021/05/31 10:27:34;;;;;;;2.61;1.81;;;;;;;18.84;51.72;100893.87;;;;-55
2021/05/31 10:30:34;;;;;;;2.38;1.75;;;;;;;18.84;51.65;100900.16;;;;-50
2021/05/31 10:33:38;;;;;;;3.20;1.91;;;;;;;18.85;51.63;100895.85;;;;-47
2021/05/31 10:36:35;;;;;;;2.22;1.79;;;;;;;18.86;51.64;100898.69;;;;-51
2021/05/31 10:39:34;;;;;;;2.73;1.60;;;;;;;18.87;51.62;100887.68;;;;-47
2021/05/31 10:42:34;;;;;;;2.20;1.82;;;;;;;18.88;51.71;100884.35;;;;-51
2021/05/31 10:45:34;;;;;;;3.19;1.91;;;;;;;18.89;51.74;100890.96;;;;-56
2021/05/31 10:48:34;;;;;;;2.05;1.74;;;;;;;18.88;51.72;100890.69;;;;-60
2021/05/31 10:51:34;;;;;;;2.13;1.81;;;;;;;18.88;51.78;100888.20;;;;-60
2021/05/31 10:54:34;;;;;;;2.02;1.83;;;;;;;18.89;51.84;100889.09;;;;-55
2021/05/31 10:57:34;;;;;;;2.67;1.83;;;;;;;18.91;51.73;100890.50;;;;-52
2021/05/31 11:00:34;;;;;;;2.53;1.83;;;;;;;18.92;51.79;100876.54;;;;-49
2021/05/31 11:03:34;;;;;;;2.05;1.83;;;;;;;18.92;51.61;100886.77;;;;-57
2021/05/31 11:06:34;;;;;;;3.97;1.69;;;;;;;18.91;51.53;100880.52;;;;-50
2021/05/31 11:09:34;;;;;;;2.61;1.90;;;;;;;18.90;51.50;100882.84;;;;-50
2021/05/31 11:12:34;;;;;;;1.75;1.60;;;;;;;18.89;51.59;100870.09;;;;-50
2021/05/31 11:15:34;;;;;;;1.77;1.60;;;;;;;18.89;51.52;100877.40;;;;-49
2021/05/31 11:18:34;;;;;;;3.39;1.70;;;;;;;18.89;51.47;100882.77;;;;-49
2021/05/31 11:21:34;;;;;;;2.71;1.84;;;;;;;18.88;51.46;100871.44;;;;-49
2021/05/31 11:24:34;;;;;;;3.31;1.72;;;;;;;18.88;51.37;100875.91;;;;-50
2021/05/31 11:27:34;;;;;;;2.41;1.70;;;;;;;18.87;51.42;100868.35;;;;-49
2021/05/31 11:30:34;;;;;;;2.11;1.67;;;;;;;18.87;51.40;100871.93;;;;-49
2021/05/31 11:33:34;;;;;;;3.17;1.70;;;;;;;18.87;51.41;100860.97;;;;-58
2021/05/31 11:36:35;;;;;;;1.71;1.60;;;;;;;18.87;51.41;100871.03;;;;-58
2021/05/31 11:39:34;;;;;;;3.19;1.70;;;;;;;18.86;51.35;100859.75;;;;-49
2021/05/31 11:42:34;;;;;;;1.70;1.60;;;;;;;18.86;51.34;100854.27;;;;-49
2021/05/31 11:45:36;;;;;;;2.17;1.57;;;;;;;18.86;51.38;100852.33;;;;-49
2021/05/31 11:48:34;;;;;;;2.59;1.69;;;;;;;18.85;51.28;100851.75;;;;-51
2021/05/31 11:51:34;;;;;;;1.79;1.67;;;;;;;18.85;51.31;100853.38;;;;-51
2021/05/31 11:54:34;;;;;;;1.89;1.56;;;;;;;18.85;51.29;100846.80;;;;-57
2021/05/31 11:57:34;;;;;;;1.65;1.55;;;;;;;18.85;51.32;100845.27;;;;-57
2021/05/31 12:00:34;;;;;;;1.71;1.61;;;;;;;18.85;51.25;100846.16;;;;-53
2021/05/31 12:03:34;;;;;;;1.75;1.60;;;;;;;18.84;51.33;100837.52;;;;-49
2021/05/31 12:06:34;;;;;;;1.70;1.60;;;;;;;18.84;51.29;100828.91;;;;-51
2021/05/31 12:09:34;;;;;;;1.95;1.77;;;;;;;18.86;51.37;100833.64;;;;-55
2021/05/31 12:12:34;;;;;;;1.83;1.60;;;;;;;18.87;51.36;100828.23;;;;-54
2021/05/31 12:15:34;;;;;;;2.21;1.71;;;;;;;18.88;51.34;100824.58;;;;-51
2021/05/31 12:18:34;;;;;;;2.38;1.60;;;;;;;18.89;51.33;100831.03;;;;-54
2021/05/31 12:21:34;;;;;;;2.07;1.60;;;;;;;18.88;51.39;100829.41;;;;-54
2021/05/31 12:24:34;;;;;;;1.78;1.68;;;;;;;18.89;51.38;100827.70;;;;-59
2021/05/31 12:27:35;;;;;;;2.73;1.68;;;;;;;18.88;51.37;100824.83;;;;-59
2021/05/31 12:30:34;;;;;;;2.71;1.61;;;;;;;18.88;51.34;100817.03;;;;-59
2021/05/31 12:33:34;;;;;;;2.96;1.72;;;;;;;18.87;51.37;100818.49;;;;-59
2021/05/31 12:36:34;;;;;;;2.81;1.60;;;;;;;18.88;51.38;100818.82;;;;-59
2021/05/31 12:39:34;;;;;;;2.27;1.60;;;;;;;18.87;51.33;100818.33;;;;-58
2021/05/31 12:42:34;;;;;;;2.45;1.67;;;;;;;18.88;51.34;100810.45;;;;-59
2021/05/31 12:45:34;;;;;;;2.09;1.71;;;;;;;18.87;51.37;100814.02;;;;-58
2021/05/31 12:48:34;;;;;;;1.89;1.50;;;;;;;18.89;51.42;100812.67;;;;-55
2021/05/31 12:51:34;;;;;;;3.79;1.71;;;;;;;18.90;51.37;100809.19;;;;-62
2021/05/31 12:54:34;;;;;;;1.60;1.50;;;;;;;18.91;51.37;100810.11;;;;-59
2021/05/31 12:57:34;;;;;;;1.79;1.61;;;;;;;18.92;51.46;100807.83;;;;-57
2021/05/31 13:00:34;;;;;;;1.94;1.65;;;;;;;18.93;51.46;100794.06;;;;-62
2021/05/31 13:03:34;;;;;;;1.81;1.60;;;;;;;18.94;51.56;100797.38;;;;-55
2021/05/31 13:06:34;;;;;;;5.02;1.60;;;;;;;18.95;51.61;100798.06;;;;-53
2021/05/31 13:09:34;;;;;;;3.47;1.62;;;;;;;18.95;51.63;100792.70;;;;-56
2021/05/31 13:12:34;;;;;;;1.79;1.65;;;;;;;18.96;51.70;100785.06;;;;-53
2021/05/31 13:15:34;;;;;;;1.59;1.49;;;;;;;18.97;51.70;100783.15;;;;-52
2021/05/31 13:18:38;;;;;;;3.56;1.61;;;;;;;18.98;51.87;100782.34;;;;-60
2021/05/31 13:21:34;;;;;;;2.87;1.67;;;;;;;18.99;51.70;100784.56;;;;-54
2021/05/31 13:24:34;;;;;;;2.92;1.53;;;;;;;19.00;51.74;100778.63;;;;-55
2021/05/31 13:27:34;;;;;;;2.50;1.69;;;;;;;18.99;51.73;100777.00;;;;-53
2021/05/31 13:30:35;;;;;;;2.67;1.60;;;;;;;18.98;51.69;100776.00;;;;-53
2021/05/31 13:33:35;;;;;;;1.70;1.58;;;;;;;18.97;51.67;100766.66;;;;-54
2021/05/31 13:36:34;;;;;;;2.21;1.63;;;;;;;18.97;51.62;100763.17;;;;-55
2021/05/31 13:39:34;;;;;;;1.70;1.60;;;;;;;18.96;51.60;100759.41;;;;-54
2021/05/31 13:42:36;;;;;;;2.05;1.58;;;;;;;18.96;51.56;100761.59;;;;-54
2021/05/31 13:45:34;;;;;;;2.51;1.69;;;;;;;18.95;51.62;100753.97;;;;-54
2021/05/31 13:48:34;;;;;;;1.97;1.67;;;;;;;18.97;51.64;100748.22;;;;-61
2021/05/31 13:51:33;;;;;;;2.12;1.63;;;;;;;18.98;51.71;100746.11;;;;-60
2021/05/31 13:54:34;;;;;;;2.71;1.75;;;;;;;19.00;51.73;100749.95;;;;-63
2021/05/31 13:57:34;;;;;;;2.37;1.64;;;;;;;19.00;51.76;100749.39;;;;-59
2021/05/31 14:00:34;;;;;;;1.74;1.62;;;;;;;19.01;51.76;100752.58;;;;-62
2021/05/31 14:03:34;;;;;;;5.01;1.71;;;;;;;19.03;51.73;100749.69;;;;-60
2021/05/31 14:06:34;;;;;;;1.97;1.67;;;;;;;19.03;51.70;100741.97;;;;-59
2021/05/31 14:09:34;;;;;;;1.81;1.67;;;;;;;19.01;51.71;100741.54;;;;-59
2021/05/31 14:12:34;;;;;;;2.25;1.63;;;;;;;19.02;51.67;100738.61;;;;-51
2021/05/31 14:15:34;;;;;;;6.63;1.71;;;;;;;19.03;51.60;100735.47;;;;-56
2021/05/31 14:18:34;;;;;;;3.75;1.83;;;;;;;19.02;51.64;100729.35;;;;-57
2021/05/31 14:21:34;;;;;;;3.29;1.90;;;;;;;19.01;51.62;100731.71;;;;-57
2021/05/31 14:24:34;;;;;;;2.12;1.68;;;;;;;19.00;51.62;100726.97;;;;-57
2021/05/31 14:27:34;;;;;;;8.06;1.70;;;;;;;19.00;51.61;100727.14;;;;-57
2021/05/31 14:30:35;;;;;;;2.02;1.67;;;;;;;19.00;51.67;100728.44;;;;-57
2021/05/31 14:33:34;;;;;;;2.75;1.56;;;;;;;18.98;51.59;100725.16;;;;-57
2021/05/31 14:36:34;;;;;;;2.12;1.59;;;;;;;19.01;51.68;100723.56;;;;-58
2021/05/31 14:39:34;;;;;;;2.82;1.68;;;;;;;19.02;51.59;100719.77;;;;-58
2021/05/31 14:42:34;;;;;;;3.04;1.70;;;;;;;19.03;51.65;100717.41;;;;-57
2021/05/31 14:45:34;;;;;;;4.88;1.92;;;;;;;19.03;51.74;100717.20;;;;-60
2021/05/31 14:48:33;;;;;;;4.15;1.77;;;;;;;19.04;51.72;100714.92;;;;-51
2021/05/31 14:51:34;;;;;;;4.11;1.83;;;;;;;19.04;51.78;100714.03;;;;-49
2021/05/31 14:54:34;;;;;;;4.30;1.84;;;;;;;19.05;51.79;100709.39;;;;-52
2021/05/31 14:57:34;;;;;;;4.35;1.74;;;;;;;19.06;51.80;100705.12;;;;-50
2021/05/31 15:00:35;;;;;;;3.20;1.70;;;;;;;19.06;51.78;100699.44;;;;-51
2021/05/31 15:03:34;;;;;;;3.27;1.57;;;;;;;19.06;51.78;100700.81;;;;-51
2021/05/31 15:06:34;;;;;;;3.19;1.56;;;;;;;19.07;51.86;100703.89;;;;-49
2021/05/31 15:09:33;;;;;;;1.81;1.69;;;;;;;19.07;51.77;100693.09;;;;-49
2021/05/31 15:12:34;;;;;;;4.51;1.73;;;;;;;19.09;51.68;100697.50;;;;-52
2021/05/31 15:15:34;;;;;;;4.79;2.06;;;;;;;19.08;51.76;100695.88;;;;-53
2021/05/31 15:18:34;;;;;;;2.51;1.69;;;;;;;19.06;51.70;100695.94;;;;-53
2021/05/31 15:21:34;;;;;;;3.71;1.60;;;;;;;19.06;51.64;100693.42;;;;-53
2021/05/31 15:24:34;;;;;;;3.20;1.60;;;;;;;19.05;51.71;100697.33;;;;-53
2021/05/31 15:27:33;;;;;;;1.85;1.61;;;;;;;19.04;51.66;100693.64;;;;-50
2021/05/31 15:30:34;;;;;;;3.13;1.85;;;;;;;19.05;51.86;100690.98;;;;-51
2021/05/31 15:33:34;;;;;;;3.68;1.73;;;;;;;19.07;52.13;100687.56;;;;-54
2021/05/31 15:36:33;;;;;;;3.15;1.77;;;;;;;19.08;52.33;100689.62;;;;-53
2021/05/31 15:39:34;;;;;;;4.77;1.77;;;;;;;19.10;52.25;100686.89;;;;-52
2021/05/31 15:42:34;;;;;;;4.31;1.71;;;;;;;19.11;52.42;100682.50;;;;-59
2021/05/31 15:45:34;;;;;;;4.34;1.72;;;;;;;19.12;52.45;100677.09;;;;-54
2021/05/31 15:48:34;;;;;;;3.37;1.75;;;;;;;19.14;52.56;100677.67;;;;-52
2021/05/31 15:51:34;;;;;;;4.08;1.69;;;;;;;19.15;52.52;100674.75;;;;-49
2021/05/31 15:54:34;;;;;;;3.11;1.69;;;;;;;19.15;52.68;100669.66;;;;-53
2021/05/31 15:57:34;;;;;;;3.19;1.76;;;;;;;19.17;52.73;100670.22;;;;-49
2021/05/31 16:00:34;;;;;;;2.31;1.71;;;;;;;19.18;52.72;100667.41;;;;-53
2021/05/31 16:03:34;;;;;;;2.96;1.61;;;;;;;19.19;52.74;100666.51;;;;-50
2021/05/31 16:06:33;;;;;;;2.33;1.59;;;;;;;19.20;52.82;100660.44;;;;-52
2021/05/31 16:09:34;;;;;;;5.77;1.89;;;;;;;19.21;52.88;100662.88;;;;-54
2021/05/31 16:12:34;;;;;;;1.97;1.63;;;;;;;19.21;53.00;100665.06;;;;-56
2021/05/31 16:15:33;;;;;;;3.14;1.72;;;;;;;19.21;53.24;100664.98;;;;-49
2021/05/31 16:18:34;;;;;;;4.16;1.78;;;;;;;19.21;53.22;100663.44;;;;-50
2021/05/31 16:21:34;;;;;;;2.15;1.67;;;;;;;19.21;53.17;100661.16;;;;-50
2021/05/31 16:24:40;;;;;;;3.94;1.73;;;;;;;19.22;53.11;100666.88;;;;-51
2021/05/31 16:27:33;;;;;;;2.78;1.50;;;;;;;19.22;53.07;100666.31;;;;-49
2021/05/31 16:30:34;;;;;;;3.21;1.73;;;;;;;19.23;53.07;100671.19;;;;-51
2021/05/31 16:33:33;;;;;;;3.06;1.72;;;;;;;19.23;52.98;100670.45;;;;-59
2021/05/31 16:36:34;;;;;;;2.59;1.57;;;;;;;19.24;52.94;100664.22;;;;-54
2021/05/31 16:39:34;;;;;;;2.81;1.71;;;;;;;19.25;52.84;100663.73;;;;-60
2021/05/31 16:42:33;;;;;;;3.54;1.82;;;;;;;19.23;52.88;100653.96;;;;-45
2021/05/31 16:45:34;;;;;;;6.01;1.78;;;;;;;19.24;52.54;100652.03;;;;-49
2021/05/31 16:48:34;;;;;;;6.68;1.70;;;;;;;19.25;52.59;100650.08;;;;-49